createdAt,value
2022-11-11T05:04:50.377Z,6.02
2022-11-11T05:09:20.567Z,6.07
2022-11-11T05:14:10.512Z,6.10
2022-11-11T05:18:59.288Z,6.07
2022-11-11T05:23:49.921Z,6.08
2022-11-11T05:28:19.904Z,6.06
2022-11-11T05:32:51.447Z,5.99
2022-11-11T05:37:21.353Z,5.99
2022-11-11T05:41:52.074Z,6.01
2022-11-11T05:46:22.415Z,5.92
2022-11-11T05:50:52.950Z,5.91
2022-11-11T05:55:23.337Z,5.93
2022-11-11T05:59:53.889Z,5.88
2022-11-11T06:04:24.264Z,5.86
2022-11-11T06:08:54.624Z,5.84
2022-11-11T06:13:25.430Z,5.82
2022-11-11T06:17:55.815Z,5.78
2022-11-11T06:22:46.673Z,5.76
2022-11-11T06:27:16.776Z,5.71
2022-11-11T06:31:48.879Z,5.64
2022-11-11T06:36:20.688Z,5.64
2022-11-11T06:40:50.690Z,5.58
2022-11-11T06:45:20.930Z,5.58
2022-11-11T06:49:51.139Z,5.53
2022-11-11T06:54:21.453Z,5.51
2022-11-11T06:58:51.833Z,5.46
2022-11-11T07:03:25.536Z,5.51
2022-11-11T07:07:56.572Z,5.50
2022-11-11T07:12:26.752Z,5.50
2022-11-11T07:16:59.576Z,5.54
2022-11-11T07:21:31.798Z,5.56
2022-11-11T07:26:01.903Z,5.56
2022-11-11T07:30:32.097Z,5.47
2022-11-11T07:35:02.873Z,5.60
2022-11-11T07:39:32.950Z,5.62
2022-11-11T07:44:03.593Z,5.75
2022-11-11T07:48:33.743Z,5.82
2022-11-11T07:53:04.122Z,5.86
2022-11-11T07:57:34.403Z,6.00
2022-11-11T08:02:04.772Z,6.06
2022-11-11T08:06:34.683Z,6.09
2022-11-11T08:11:04.794Z,6.16
2022-11-11T08:15:36.383Z,6.20
2022-11-11T08:20:10.667Z,6.29
2022-11-11T08:25:02.744Z,6.38
2022-11-11T08:29:30.768Z,6.47
2022-11-11T08:34:01.016Z,6.55
2022-11-11T08:38:31.425Z,6.65
2022-11-11T08:43:01.664Z,6.74
2022-11-11T08:47:31.863Z,6.83
2022-11-11T08:52:02.155Z,6.90
2022-11-11T08:56:32.419Z,6.99
2022-11-11T09:01:04.149Z,7.13
2022-11-11T09:05:35.281Z,7.21
2022-11-11T09:10:06.028Z,7.36
2022-11-11T09:14:35.951Z,7.50
2022-11-11T09:19:06.111Z,7.51
2022-11-11T09:23:38.927Z,7.67
2022-11-11T09:28:09.105Z,7.73
2022-11-11T09:32:39.470Z,7.84
2022-11-11T09:37:10.100Z,7.95
2022-11-11T09:42:06.824Z,7.89
2022-11-11T09:46:54.126Z,8.00
2022-11-11T09:51:30.589Z,7.95
2022-11-11T09:56:29.099Z,7.96
2022-11-11T10:01:14.886Z,7.98
2022-11-11T10:05:54.895Z,8.05
2022-11-11T10:10:48.013Z,8.11
2022-11-11T10:15:18.385Z,8.20
2022-11-11T10:19:51.700Z,8.20
2022-11-11T10:24:42.217Z,8.03
2022-11-11T10:29:20.090Z,8.04
2022-11-11T10:33:58.620Z,8.05
2022-11-11T10:38:35.155Z,8.11
2022-11-11T10:43:05.283Z,7.94
2022-11-11T10:47:56.381Z,7.98
2022-11-11T10:52:35.782Z,8.19
2022-11-11T10:57:34.209Z,8.11
2022-11-11T11:02:24.450Z,8.30
2022-11-11T11:06:57.395Z,8.40
2022-11-11T11:11:41.545Z,8.55
2022-11-11T11:16:26.424Z,8.66
2022-11-11T11:21:05.833Z,8.73
2022-11-11T11:25:35.992Z,8.59
2022-11-11T11:30:21.874Z,8.73
2022-11-11T11:34:54.132Z,8.91
2022-11-11T11:39:33.257Z,8.93
2022-11-11T11:44:03.254Z,8.96
2022-11-11T11:48:50.074Z,8.85
2022-11-11T11:53:38.360Z,8.86
2022-11-11T11:58:28.375Z,8.75
2022-11-11T12:03:07.779Z,8.97
2022-11-11T12:07:46.735Z,9.06
2022-11-11T12:12:40.140Z,9.17
2022-11-11T12:17:25.045Z,9.36
2022-11-11T12:22:23.906Z,9.30
2022-11-11T12:27:07.825Z,9.28
2022-11-11T12:31:57.470Z,9.31
2022-11-11T12:36:46.247Z,9.30
2022-11-11T12:41:38.564Z,9.34
2022-11-11T12:46:08.577Z,9.32
2022-11-11T12:50:49.501Z,9.34
2022-11-11T12:55:38.165Z,9.28
2022-11-11T13:00:24.654Z,9.32
2022-11-11T13:05:01.792Z,9.25
2022-11-11T13:10:13.232Z,9.21
2022-11-11T13:15:03.665Z,9.30
2022-11-11T13:19:41.341Z,9.24
2022-11-11T13:24:14.461Z,9.23
2022-11-11T13:28:50.084Z,9.22
2022-11-11T13:33:36.764Z,9.17
2022-11-11T13:38:09.831Z,9.17
2022-11-11T13:42:46.620Z,8.99
2022-11-11T13:47:24.177Z,8.87
2022-11-11T13:51:59.360Z,8.64
2022-11-11T13:56:38.669Z,8.68
2022-11-11T14:01:10.887Z,8.69
2022-11-11T14:05:41.021Z,8.79
2022-11-11T14:10:33.691Z,8.81
2022-11-11T14:15:07.968Z,8.85
2022-11-11T14:19:37.949Z,8.92
2022-11-11T14:24:08.966Z,8.96
2022-11-11T14:28:48.019Z,8.96
2022-11-11T14:33:31.779Z,8.96
2022-11-11T14:38:04.877Z,8.95
2022-11-11T14:42:37.667Z,8.93
2022-11-11T14:47:07.609Z,8.86
2022-11-11T14:51:50.208Z,8.85
2022-11-11T14:56:21.162Z,8.78
2022-11-11T15:00:58.788Z,8.84
2022-11-11T15:05:34.921Z,8.86
2022-11-11T15:10:30.266Z,8.83
2022-11-11T15:15:14.538Z,8.74
2022-11-11T15:19:50.371Z,8.69
2022-11-11T15:24:44.703Z,8.65
2022-11-11T15:29:52.013Z,8.74
2022-11-11T15:34:35.588Z,8.63
2022-11-11T15:39:10.718Z,8.55
2022-11-11T15:43:41.917Z,8.42
2022-11-11T15:48:19.224Z,8.30
2022-11-11T15:53:04.371Z,8.25
2022-11-11T15:57:39.498Z,8.23
2022-11-11T16:02:27.932Z,8.19
2022-11-11T16:06:58.527Z,8.12
2022-11-11T16:11:28.673Z,8.11
2022-11-11T16:16:18.293Z,8.08
2022-11-11T16:20:55.109Z,7.92
2022-11-11T16:25:26.045Z,7.93
2022-11-11T16:29:56.352Z,7.94
2022-11-11T16:34:29.634Z,7.95
2022-11-11T16:39:20.089Z,7.96
2022-11-11T16:43:50.531Z,7.93
2022-11-11T16:48:36.789Z,7.83
2022-11-11T16:53:07.678Z,7.65
2022-11-11T16:57:43.160Z,7.58
2022-11-11T17:02:21.808Z,7.67
2022-11-11T17:06:55.518Z,7.76
2022-11-11T17:11:40.756Z,7.79
2022-11-11T17:16:13.003Z,7.69
2022-11-11T17:20:43.155Z,7.68
2022-11-11T17:25:13.674Z,7.67
2022-11-11T17:29:46.302Z,7.48
2022-11-11T17:34:16.335Z,7.53
2022-11-11T17:38:46.535Z,7.45
2022-11-11T17:43:17.364Z,7.37
2022-11-11T17:47:47.703Z,7.48
2022-11-11T17:52:18.383Z,7.60
2022-11-11T17:56:48.850Z,7.60
2022-11-11T18:01:19.165Z,7.63
2022-11-11T18:05:53.975Z,7.71
2022-11-11T18:10:24.353Z,7.70
2022-11-11T18:14:55.108Z,7.68
2022-11-11T18:19:25.150Z,7.69
2022-11-11T18:23:55.700Z,7.60
2022-11-11T18:28:36.857Z,7.45
2022-11-11T18:33:07.418Z,7.31
2022-11-11T18:37:42.465Z,7.22
2022-11-11T18:42:15.622Z,7.31
2022-11-11T18:46:46.126Z,7.25
2022-11-11T18:51:17.812Z,7.19
2022-11-11T18:55:47.861Z,7.37
2022-11-11T19:00:18.371Z,7.45
2022-11-11T19:04:48.362Z,7.50
2022-11-11T19:09:18.677Z,7.31
2022-11-11T19:13:48.930Z,7.38
2022-11-11T19:18:19.762Z,7.36
2022-11-11T19:22:49.954Z,7.28
2022-11-11T19:27:20.082Z,7.14
2022-11-11T19:31:50.417Z,7.17
2022-11-11T19:36:28.130Z,7.12
2022-11-11T19:40:59.145Z,7.12
2022-11-11T19:45:32.005Z,7.11
2022-11-11T19:50:04.908Z,7.14
2022-11-11T19:54:34.852Z,7.11
2022-11-11T19:59:10.084Z,7.14
2022-11-11T20:03:41.569Z,7.12
2022-11-11T20:08:38.816Z,7.09
2022-11-11T20:19:18.529Z,7.21
2022-11-11T20:23:48.905Z,7.17
2022-11-11T20:28:33.757Z,7.12
2022-11-11T20:33:04.098Z,6.88
2022-11-11T20:37:46.016Z,6.88
2022-11-11T20:48:14.958Z,6.89
2022-11-11T20:52:45.521Z,6.89
2022-11-11T20:57:16.208Z,7.02
2022-11-11T21:01:56.163Z,7.02
2022-11-11T21:06:27.700Z,6.98
2022-11-11T21:10:59.018Z,7.02
2022-11-11T21:15:29.355Z,6.96
2022-11-11T21:19:59.773Z,6.84
2022-11-11T21:24:30.142Z,6.71
2022-11-11T21:29:01.141Z,6.69
2022-11-11T21:33:31.509Z,6.63
2022-11-11T21:38:01.814Z,6.64
2022-11-11T21:42:31.943Z,6.54
2022-11-11T21:47:02.299Z,6.54
2022-11-11T21:51:34.675Z,6.55
2022-11-11T21:56:08.017Z,6.47
2022-11-11T22:00:38.103Z,6.51
2022-11-11T22:05:08.229Z,6.52
2022-11-11T22:09:38.493Z,6.63
2022-11-11T22:14:09.155Z,6.61
2022-11-11T22:18:44.327Z,6.67
2022-11-11T22:23:15.005Z,6.66
2022-11-11T22:27:46.328Z,6.72
